Time;durP1;ratioP1;P1;durP2;ratioP2;P2;SDS_P1;SDS_P2;PMS_P1;PMS_P2;Temp;Humidity;BMP_temperature;BMP_pressure;BME280_temperature;BME280_humidity;BME280_pressure;Samples;Min_cycle;Max_cycle;Signal;HPM_P1;HPM_P2
2022/08/15 07:21:20;;;;;;;3.90;2.10;;;;;;;23.90;90.86;99346.66;5097174;27;20783;-76
2022/08/15 07:24:06;;;;;;;2.17;1.93;;;;;;;23.94;91.17;99341.97;5095845;28;20205;-79
2022/08/15 07:26:46;;;;;;;2.40;2.20;;;;;;;23.92;91.91;99338.59;5107576;28;20252;-74
2022/08/15 07:29:31;;;;;;;4.00;2.33;;;;;;;23.89;91.53;99337.91;5102267;28;20179;-74
2022/08/15 07:32:07;;;;;;;7.93;2.83;;;;;;;23.95;90.91;99344.50;5101461;28;20172;-76
2022/08/15 07:34:32;;;;;;;5.53;2.53;;;;;;;24.12;90.78;99329.13;5098298;28;20177;-77
2022/08/15 07:37:03;;;;;;;4.07;2.23;;;;;;;24.38;90.55;99331.44;5108685;28;20208;-76
2022/08/15 07:39:36;;;;;;;4.30;2.10;;;;;;;24.67;89.15;99329.00;5103345;28;20294;-77
2022/08/15 07:42:18;;;;;;;2.30;2.10;;;;;;;24.94;88.42;99333.81;5105472;27;20192;-77
2022/08/15 07:45:00;;;;;;;2.07;1.90;;;;;;;25.21;86.34;99340.38;5096038;28;20287;-75
2022/08/15 07:47:29;;;;;;;2.00;1.90;;;;;;;25.26;85.96;99334.66;5102851;28;20181;-76
2022/08/15 07:50:37;;;;;;;2.83;2.00;;;;;;;25.46;84.51;99335.66;5104322;28;20176;-76
2022/08/15 07:53:23;;;;;;;2.30;2.10;;;;;;;25.66;84.10;99339.22;5100538;28;20211;-75
2022/08/15 07:56:13;;;;;;;2.87;2.57;;;;;;;26.03;83.08;99335.94;5095841;28;20193;-74
2022/08/15 07:58:41;;;;;;;4.77;2.37;;;;;;;26.30;82.50;99331.81;5087771;28;20196;-78
2022/08/15 08:01:22;;;;;;;2.53;2.10;;;;;;;26.53;81.54;99336.84;5101525;28;20209;-75
2022/08/15 08:03:55;;;;;;;3.20;2.10;;;;;;;26.66;81.26;99339.22;5088729;28;20203;-76
2022/08/15 08:06:45;;;;;;;2.57;2.03;;;;;;;26.78;80.30;99330.13;5098677;28;20237;-75
2022/08/15 08:09:39;;;;;;;2.37;2.00;;;;;;;26.99;80.35;99334.44;5104783;28;20715;-75
2022/08/15 08:12:07;;;;;;;3.40;1.70;;;;;;;27.31;79.99;99335.88;5102508;28;20217;-77
2022/08/15 08:15:12;;;;;;;1.90;1.80;;;;;;;27.60;78.97;99336.75;5101761;28;20177;-77
2022/08/15 08:17:50;;;;;;;2.00;1.90;;;;;;;27.60;77.71;99342.94;5106759;28;20214;-75
2022/08/15 08:20:22;;;;;;;1.90;1.80;;;;;;;27.34;77.94;99346.22;5104087;28;20212;-75
2022/08/15 08:23:08;;;;;;;2.87;1.90;;;;;;;27.00;78.26;99345.91;5114719;27;20219;-76
2022/08/15 08:25:49;;;;;;;5.03;1.90;;;;;;;26.73;79.26;99350.09;5088418;28;20189;-73
2022/08/15 08:28:27;;;;;;;2.57;1.80;;;;;;;26.76;79.46;99348.00;5091521;28;20183;-75
2022/08/15 08:31:02;;;;;;;2.43;2.23;;;;;;;27.06;78.98;99340.84;5095408;28;20191;-73
2022/08/15 08:33:31;;;;;;;2.37;1.67;;;;;;;27.30;78.46;99347.47;5084983;28;20212;-75
2022/08/15 08:36:06;;;;;;;2.63;2.00;;;;;;;27.41;78.22;99350.94;5083921;28;20235;-76
2022/08/15 08:38:38;;;;;;;2.53;2.10;;;;;;;27.42;77.04;99349.97;5077933;28;20667;-75
2022/08/15 08:41:25;;;;;;;1.87;1.60;;;;;;;27.37;77.02;99358.38;5089130;28;20208;-75
2022/08/15 08:44:03;;;;;;;2.20;1.97;;;;;;;27.39;77.40;99361.69;5074038;28;20661;-75
2022/08/15 08:47:21;;;;;;;2.70;1.97;;;;;;;27.42;77.16;99365.91;5075831;28;20189;-75
2022/08/15 08:49:53;;;;;;;1.70;1.60;;;;;;;27.70;76.64;99361.47;5064866;28;20181;-76
2022/08/15 08:52:18;;;;;;;2.53;2.10;;;;;;;27.94;74.91;99362.75;5078219;28;20201;-75
2022/08/15 08:54:59;;;;;;;2.23;1.90;;;;;;;28.04;74.58;99363.53;5082255;28;20731;-75
2022/08/15 08:57:32;;;;;;;2.23;1.80;;;;;;;28.19;74.40;99361.22;5084317;28;20177;-75
2022/08/15 09:00:04;;;;;;;4.43;2.30;;;;;;;28.42;74.25;99363.44;5080063;28;20202;-75
2022/08/15 09:02:36;;;;;;;3.83;1.97;;;;;;;28.53;73.87;99363.19;5080609;28;20245;-76
2022/08/15 09:05:12;;;;;;;4.13;1.90;;;;;;;28.64;72.67;99356.81;5082868;28;20546;-76
2022/08/15 09:07:45;;;;;;;2.37;2.17;;;;;;;28.63;71.78;99354.31;5084851;28;20181;-76
2022/08/15 09:10:18;;;;;;;3.13;2.23;;;;;;;28.49;71.92;99364.50;5087425;28;20656;-77
2022/08/15 09:15:35;;;;;;;2.20;1.83;;;;;;;28.39;72.89;99364.59;5078891;28;20186;-76
2022/08/15 09:18:08;;;;;;;2.27;1.90;;;;;;;28.48;72.67;99372.63;5082241;28;20222;-74
2022/08/15 09:20:36;;;;;;;1.83;1.57;;;;;;;28.60;72.88;99372.25;5086906;28;20213;-75
2022/08/15 09:23:05;;;;;;;2.20;1.60;;;;;;;28.71;72.00;99363.19;5079627;28;20213;-75
2022/08/15 09:25:33;;;;;;;2.80;1.70;;;;;;;28.82;71.55;99372.78;5074140;28;20184;-77
2022/08/15 09:28:10;;;;;;;1.67;1.57;;;;;;;28.88;71.08;99358.84;5078010;28;20638;-76
2022/08/15 09:30:39;;;;;;;1.90;1.80;;;;;;;28.92;70.69;99358.56;5080881;28;20643;-77
2022/08/15 09:33:51;;;;;;;2.17;1.97;;;;;;;28.89;70.27;99352.53;5066943;28;20243;-75
2022/08/15 09:36:17;;;;;;;2.33;2.13;;;;;;;28.95;69.93;99351.06;5067336;28;20220;-78
2022/08/15 09:38:48;;;;;;;1.93;1.70;;;;;;;28.89;69.79;99357.03;5072802;28;20701;-77
2022/08/15 09:41:33;;;;;;;2.00;1.90;;;;;;;28.88;69.91;99353.53;5080069;28;20209;-76
2022/08/15 09:44:20;;;;;;;2.83;1.60;;;;;;;28.90;69.91;99354.22;5079748;28;20208;-78
2022/08/15 09:46:45;;;;;;;1.90;1.80;;;;;;;28.91;69.61;99349.72;5071871;28;20189;-75
2022/08/15 09:49:17;;;;;;;1.97;1.77;;;;;;;28.97;69.61;99348.25;5074137;28;20186;-76
2022/08/15 09:52:19;;;;;;;2.13;1.93;;;;;;;28.96;69.23;99343.94;5080105;28;20257;-75
2022/08/15 09:55:01;;;;;;;2.37;2.10;;;;;;;28.91;69.51;99333.72;5077366;28;20172;-75
2022/08/15 09:57:34;;;;;;;2.40;2.20;;;;;;;28.97;69.84;99338.44;5077373;28;20211;-75
2022/08/15 10:00:15;;;;;;;2.20;2.00;;;;;;;29.00;70.11;99330.16;5079145;28;20190;-76
2022/08/15 10:02:42;;;;;;;2.10;1.90;;;;;;;29.00;69.82;99334.63;5076256;28;20300;-75
2022/08/15 10:05:23;;;;;;;2.83;2.10;;;;;;;28.99;69.91;99322.28;5079388;28;20309;-78
2022/08/15 10:07:48;;;;;;;2.50;2.07;;;;;;;28.95;69.89;99326.28;5085930;28;20200;-77
2022/08/15 10:10:23;;;;;;;1.77;1.67;;;;;;;28.87;69.25;99308.44;5085441;28;20182;-76
2022/08/15 10:13:07;;;;;;;2.80;1.80;;;;;;;28.73;68.46;99310.69;5082716;28;20729;-76
2022/08/15 10:15:35;;;;;;;1.87;1.77;;;;;;;28.70;67.86;99320.75;5084581;28;20253;-77
2022/08/15 10:18:08;;;;;;;2.10;2.00;;;;;;;28.68;68.19;99318.25;5085992;28;20177;-75
2022/08/15 10:20:33;;;;;;;2.00;1.90;;;;;;;28.68;68.10;99312.94;5085810;28;20220;-76
2022/08/15 10:22:59;;;;;;;1.90;1.80;;;;;;;28.61;68.14;99306.53;5087752;28;20189;-75
2022/08/15 10:25:24;;;;;;;2.37;2.10;;;;;;;28.63;68.25;99304.56;5085967;28;20679;-76
2022/08/15 10:27:53;;;;;;;1.90;1.80;;;;;;;28.69;67.26;99297.78;5090278;28;20229;-78
2022/08/15 10:30:18;;;;;;;1.80;1.70;;;;;;;28.51;67.46;99300.47;5084167;28;20185;-78
2022/08/15 10:32:44;;;;;;;3.13;2.07;;;;;;;28.41;67.45;99301.41;5081466;28;20212;-75
2022/08/15 10:35:29;;;;;;;1.87;1.67;;;;;;;28.40;67.35;99296.22;5089915;28;20649;-76
2022/08/15 10:38:02;;;;;;;2.10;2.00;;;;;;;28.44;67.63;99294.94;5087698;28;20672;-78
2022/08/15 10:40:34;;;;;;;2.53;2.33;;;;;;;28.47;67.83;99294.63;5078059;28;20201;-75
2022/08/15 10:43:38;;;;;;;2.00;1.90;;;;;;;28.51;67.92;99292.50;5079365;28;20197;-75
2022/08/15 10:46:18;;;;;;;2.17;1.97;;;;;;;28.57;67.27;99279.41;5086350;28;20192;-76
2022/08/15 10:49:03;;;;;;;2.40;2.20;;;;;;;28.56;67.53;99282.22;5084350;28;20225;-79
2022/08/15 10:51:31;;;;;;;2.20;2.00;;;;;;;28.64;67.75;99295.59;5079178;28;20245;-77
2022/08/15 10:54:09;;;;;;;2.43;2.10;;;;;;;28.69;66.04;99290.63;5079929;28;20297;-78
2022/08/15 10:56:39;;;;;;;3.20;2.33;;;;;;;28.58;65.47;99283.72;5083214;28;20208;-76
2022/08/15 10:59:15;;;;;;;2.10;2.00;;;;;;;28.53;66.07;99278.03;5082831;28;20185;-76
2022/08/15 11:01:44;;;;;;;2.30;2.10;;;;;;;28.47;66.18;99270.69;5078429;28;20220;-76
2022/08/15 11:04:25;;;;;;;2.40;2.20;;;;;;;28.49;66.84;99271.38;5082761;28;20252;-78
2022/08/15 11:06:52;;;;;;;2.40;2.20;;;;;;;28.57;66.56;99268.75;5073779;28;20177;-76
2022/08/15 11:09:21;;;;;;;2.30;2.10;;;;;;;28.66;66.13;99269.66;5076516;28;20192;-77
2022/08/15 11:12:00;;;;;;;2.40;2.20;;;;;;;28.71;66.42;99259.38;5080704;28;20213;-76
2022/08/15 11:14:39;;;;;;;2.13;1.93;;;;;;;28.83;65.72;99265.28;5079055;28;20291;-76
2022/08/15 11:17:14;;;;;;;2.47;2.27;;;;;;;28.92;65.98;99271.50;5073542;28;20664;-75
2022/08/15 11:19:44;;;;;;;2.20;2.10;;;;;;;29.02;65.16;99255.41;5072223;28;20213;-76
2022/08/15 11:22:19;;;;;;;2.47;2.10;;;;;;;29.01;65.39;99256.41;5084759;28;20208;-76
2022/08/15 11:25:00;;;;;;;2.60;2.40;;;;;;;28.79;65.42;99258.63;5083545;28;20660;-77
2022/08/15 11:27:27;;;;;;;3.23;2.70;;;;;;;28.76;65.55;99256.28;5078716;28;20703;-76
2022/08/15 11:29:55;;;;;;;3.17;2.30;;;;;;;28.84;64.41;99245.66;5077054;28;20185;-74
2022/08/15 11:32:29;;;;;;;3.43;2.50;;;;;;;29.03;63.85;99254.41;5078165;28;20585;-74
2022/08/15 11:34:55;;;;;;;2.77;2.50;;;;;;;29.16;63.52;99248.66;5077549;28;20185;-75
2022/08/15 11:37:24;;;;;;;2.60;2.40;;;;;;;29.24;63.81;99253.19;5069812;28;20189;-75
2022/08/15 11:39:52;;;;;;;2.57;2.10;;;;;;;29.32;63.91;99254.06;5083788;28;20201;-76
2022/08/15 11:42:21;;;;;;;2.40;2.20;;;;;;;29.34;62.84;99245.88;5079496;28;20715;-74
2022/08/15 11:44:58;;;;;;;2.80;2.50;;;;;;;29.33;63.05;99250.41;5076048;28;20227;-75
2022/08/15 11:47:30;;;;;;;2.70;2.50;;;;;;;29.38;63.54;99241.94;5077743;28;20182;-75
2022/08/15 11:50:00;;;;;;;3.27;2.60;;;;;;;29.43;62.84;99239.59;5078250;28;20224;-75
2022/08/15 11:52:30;;;;;;;2.37;2.20;;;;;;;29.33;62.88;99238.88;5074886;28;20209;-77
2022/08/15 11:55:26;;;;;;;3.00;2.80;;;;;;;29.22;63.25;99241.84;5076734;28;20202;-75
2022/08/15 11:57:54;;;;;;;2.63;2.43;;;;;;;29.28;64.22;99242.03;5079378;28;20193;-76
2022/08/15 12:00:27;;;;;;;3.20;2.80;;;;;;;29.43;62.75;99239.59;5081048;28;20833;-76
2022/08/15 12:02:53;;;;;;;2.70;2.50;;;;;;;29.48;63.17;99239.16;5081583;28;20212;-75
2022/08/15 12:05:31;;;;;;;2.97;2.77;;;;;;;29.57;63.55;99235.50;5078674;28;20174;-75
2022/08/15 12:08:00;;;;;;;2.60;2.40;;;;;;;29.62;63.42;99240.34;5088555;28;20177;-75
2022/08/15 12:10:31;;;;;;;2.80;2.60;;;;;;;29.69;62.73;99222.69;5090337;28;20169;-75
2022/08/15 12:12:57;;;;;;;2.83;2.60;;;;;;;29.57;62.65;99243.50;5086111;28;20246;-76
2022/08/15 12:15:31;;;;;;;2.70;2.50;;;;;;;29.32;63.41;99245.22;5087657;28;20207;-77
2022/08/15 12:18:02;;;;;;;2.47;2.27;;;;;;;29.15;63.71;99237.16;5084895;28;20206;-76
2022/08/15 12:20:55;;;;;;;3.17;2.23;;;;;;;29.14;63.40;99238.13;5080213;28;20201;-77
2022/08/15 12:23:23;;;;;;;2.47;2.30;;;;;;;28.94;63.91;99240.22;5081990;28;20683;-76
2022/08/15 12:25:59;;;;;;;3.00;2.70;;;;;;;28.67;64.89;99238.53;5083642;28;20178;-74
2022/08/15 12:28:27;;;;;;;3.10;2.80;;;;;;;28.61;65.45;99242.66;5078643;28;20182;-75
2022/08/15 12:30:58;;;;;;;2.67;2.47;;;;;;;28.81;65.35;99240.66;5085142;28;20165;-75
2022/08/15 12:33:24;;;;;;;2.60;2.40;;;;;;;28.97;65.48;99239.91;5080163;28;20205;-75
2022/08/15 12:35:51;;;;;;;2.60;2.40;;;;;;;29.05;65.44;99241.78;5076275;28;20185;-76
2022/08/15 12:38:20;;;;;;;2.90;2.70;;;;;;;29.18;65.38;99242.16;5073993;28;20185;-75
2022/08/15 12:40:48;;;;;;;2.40;2.30;;;;;;;29.27;65.41;99243.03;5083987;28;20206;-75
2022/08/15 12:43:14;;;;;;;5.70;3.27;;;;;;;29.48;64.54;99239.16;5077485;28;20216;-75
2022/08/15 12:45:39;;;;;;;6.20;3.70;;;;;;;29.62;63.83;99240.34;5080479;28;20665;-75
2022/08/15 12:48:27;;;;;;;14.07;4.90;;;;;;;29.68;63.46;99239.69;5084532;28;20189;-74
2022/08/15 12:50:54;;;;;;;6.47;3.87;;;;;;;29.57;64.38;99254.16;5082991;28;20177;-75
2022/08/15 12:53:19;;;;;;;4.00;3.10;;;;;;;29.37;63.92;99250.09;5076188;28;20228;-75
2022/08/15 12:55:48;;;;;;;8.83;3.40;;;;;;;29.20;64.40;99255.31;5088600;28;20276;-75
2022/08/15 12:58:17;;;;;;;14.73;5.00;;;;;;;29.01;64.52;99262.56;5074537;28;20566;-74
2022/08/15 13:00:44;;;;;;;11.10;4.23;;;;;;;28.90;64.45;99262.81;5078808;28;20278;-75
2022/08/15 13:03:23;;;;;;;5.23;3.10;;;;;;;28.71;64.94;99267.38;5078965;28;20224;-75
2022/08/15 13:05:58;;;;;;;3.20;2.93;;;;;;;28.63;66.07;99274.44;5081490;28;21917;-76
2022/08/15 13:08:23;;;;;;;5.30;3.17;;;;;;;28.51;66.04;99273.88;5073605;28;20189;-76
2022/08/15 13:10:48;;;;;;;3.87;3.33;;;;;;;28.42;66.38;99271.16;5082237;28;20888;-75
2022/08/15 13:13:14;;;;;;;3.17;2.97;;;;;;;28.35;66.86;99272.75;5087327;28;20274;-77
2022/08/15 13:15:39;;;;;;;4.33;2.80;;;;;;;28.28;66.64;99277.84;5076842;28;20216;-76
2022/08/15 13:18:06;;;;;;;2.60;2.30;;;;;;;28.11;65.48;99274.22;5084938;28;20760;-75
2022/08/15 13:23:38;;;;;;;2.27;2.00;;;;;;;27.91;65.12;99260.19;5078812;28;20809;-75
2022/08/15 13:26:06;;;;;;;5.90;2.87;;;;;;;27.89;65.45;99263.97;5077517;28;20330;-76
2022/08/15 13:28:31;;;;;;;8.20;4.10;;;;;;;27.78;66.01;99257.91;5077022;28;20231;-76
2022/08/15 13:30:57;;;;;;;5.20;3.00;;;;;;;27.73;66.21;99254.03;5078963;28;20641;-76
2022/08/15 13:33:22;;;;;;;2.50;2.30;;;;;;;27.69;65.94;99262.31;5079064;28;20747;-75
2022/08/15 13:35:48;;;;;;;3.23;2.23;;;;;;;27.57;66.29;99267.97;5077395;28;20189;-76
2022/08/15 13:38:14;;;;;;;2.10;2.00;;;;;;;27.50;66.37;99262.41;5080896;28;20185;-76
2022/08/15 13:40:40;;;;;;;2.60;2.10;;;;;;;27.48;66.66;99269.69;5079222;28;20284;-75
2022/08/15 13:43:07;;;;;;;2.53;2.33;;;;;;;27.48;66.99;99270.53;5078364;28;20618;-76
2022/08/15 13:45:33;;;;;;;2.40;2.20;;;;;;;27.50;67.11;99279.22;5079031;28;20213;-77
2022/08/15 13:47:58;;;;;;;2.60;2.30;;;;;;;27.54;67.36;99277.91;5081656;28;20661;-76
2022/08/15 13:50:24;;;;;;;2.57;2.17;;;;;;;27.64;67.08;99279.69;5084831;28;20181;-76
2022/08/15 13:52:51;;;;;;;2.70;2.50;;;;;;;27.68;66.63;99278.41;5086535;28;20212;-76
2022/08/15 13:55:22;;;;;;;2.67;2.47;;;;;;;27.73;66.49;99285.94;5084883;28;20241;-76
2022/08/15 13:57:48;;;;;;;2.13;1.80;;;;;;;27.83;66.79;99290.19;5084403;28;20200;-77
2022/08/15 14:00:14;;;;;;;2.47;2.27;;;;;;;27.96;66.34;99300.44;5078109;28;20665;-73
2022/08/15 14:02:41;;;;;;;2.60;2.40;;;;;;;28.03;66.20;99290.06;5084188;28;20197;-75
2022/08/15 14:05:13;;;;;;;2.10;2.00;;;;;;;28.13;66.53;99316.59;5071307;28;20219;-75
2022/08/15 14:07:38;;;;;;;2.60;2.40;;;;;;;28.17;66.49;99335.75;5067496;28;20679;-75
2022/08/15 14:10:05;;;;;;;2.63;2.40;;;;;;;28.08;66.81;99343.63;5077388;28;20192;-74
2022/08/15 14:12:30;;;;;;;3.13;2.83;;;;;;;27.92;66.78;99356.75;5072968;28;20212;-74
2022/08/15 14:14:58;;;;;;;16.23;3.47;;;;;;;27.67;67.03;99362.59;5075418;28;20255;-74
2022/08/15 14:17:23;;;;;;;6.00;2.87;;;;;;;27.46;68.36;99362.00;5076472;28;20201;-75
2022/08/15 14:19:48;;;;;;;5.73;2.93;;;;;;;27.35;68.79;99353.19;5076420;28;20712;-76
2022/08/15 14:22:14;;;;;;;5.77;3.07;;;;;;;27.24;68.89;99359.50;5077157;28;20244;-74
2022/08/15 14:24:39;;;;;;;6.70;2.20;;;;;;;27.16;68.26;99351.44;5078549;28;20180;-74
2022/08/15 14:27:06;;;;;;;3.37;2.07;;;;;;;27.07;68.12;99345.19;5079886;28;20193;-74
2022/08/15 14:29:39;;;;;;;2.13;1.93;;;;;;;27.01;67.80;99355.53;5079218;28;20189;-74
2022/08/15 14:32:09;;;;;;;2.03;1.70;;;;;;;26.90;68.54;99364.50;5074649;28;20630;-75
2022/08/15 14:34:35;;;;;;;2.10;1.90;;;;;;;26.70;68.87;99364.47;5073471;28;20185;-76
2022/08/15 14:37:00;;;;;;;2.60;2.10;;;;;;;26.35;70.83;99362.38;5076384;28;20212;-76
2022/08/15 14:39:25;;;;;;;5.77;2.60;;;;;;;26.12;72.57;99381.19;5079205;28;20208;-75
2022/08/15 14:41:51;;;;;;;3.53;2.00;;;;;;;25.89;73.77;99373.44;5078914;28;20194;-75
2022/08/15 14:44:19;;;;;;;4.87;2.30;;;;;;;25.82;74.97;99374.97;5084729;28;20242;-77
2022/08/15 14:46:45;;;;;;;3.10;2.40;;;;;;;25.80;75.84;99383.03;5080438;28;20194;-78
2022/08/15 14:49:11;;;;;;;3.33;2.77;;;;;;;25.74;76.61;99391.53;5079562;28;20182;-77
2022/08/15 14:51:41;;;;;;;2.53;2.33;;;;;;;25.69;77.13;99375.19;5079027;28;20273;-77
2022/08/15 14:54:10;;;;;;;4.30;2.87;;;;;;;25.60;77.10;99381.28;5084240;28;20208;-77
2022/08/15 14:56:36;;;;;;;4.47;2.83;;;;;;;25.51;77.94;99374.97;5081558;28;20186;-76
2022/08/15 14:59:06;;;;;;;3.13;2.83;;;;;;;25.45;78.33;99375.50;5071057;28;20185;-74
2022/08/15 15:01:33;;;;;;;3.20;2.77;;;;;;;25.49;79.05;99382.22;5079193;28;20256;-76
2022/08/15 15:04:01;;;;;;;2.50;2.30;;;;;;;25.52;79.16;99363.41;5080312;28;20365;-76
2022/08/15 15:06:28;;;;;;;2.80;2.60;;;;;;;25.48;79.37;99356.69;5081384;28;20189;-78
2022/08/15 15:08:55;;;;;;;3.60;2.57;;;;;;;25.45;80.00;99354.31;5076742;28;20185;-75
2022/08/15 15:11:20;;;;;;;2.97;2.77;;;;;;;25.44;81.30;99342.88;5083011;28;20271;-78
2022/08/15 15:13:48;;;;;;;4.87;2.80;;;;;;;25.42;82.18;99339.53;5076622;28;20296;-76
2022/08/15 15:16:16;;;;;;;3.33;2.83;;;;;;;25.41;82.27;99335.16;5080719;28;20674;-75
2022/08/15 15:18:43;;;;;;;2.90;2.70;;;;;;;25.39;82.18;99329.16;5083339;28;20204;-78
2022/08/15 15:21:11;;;;;;;3.40;3.10;;;;;;;25.36;82.41;99329.41;5082259;28;20823;-76
2022/08/15 15:23:38;;;;;;;4.13;2.80;;;;;;;25.34;82.66;99326.06;5079901;28;20268;-77
2022/08/15 15:26:07;;;;;;;4.27;3.50;;;;;;;25.30;82.29;99325.50;5081002;28;20547;-78
2022/08/15 15:28:34;;;;;;;3.47;3.10;;;;;;;25.24;82.52;99328.69;5072432;28;20182;-76
2022/08/15 15:30:59;;;;;;;3.37;2.90;;;;;;;25.23;82.90;99321.72;5077728;28;20864;-77
2022/08/15 15:33:26;;;;;;;2.80;2.60;;;;;;;25.21;83.27;99319.19;5076332;28;20201;-75
2022/08/15 15:35:52;;;;;;;3.13;2.93;;;;;;;25.20;83.73;99317.50;5079480;28;20181;-76
2022/08/15 15:38:17;;;;;;;2.90;2.70;;;;;;;25.18;83.39;99308.03;5078736;28;20177;-78
2022/08/15 15:40:43;;;;;;;3.47;3.13;;;;;;;25.14;82.99;99302.16;5081659;28;20219;-76
2022/08/15 15:43:08;;;;;;;3.27;2.97;;;;;;;25.09;82.95;99293.78;5081217;28;20213;-75
2022/08/15 15:45:34;;;;;;;3.23;3.00;;;;;;;25.08;83.55;99306.19;5084755;28;20540;-77
2022/08/15 15:48:00;;;;;;;3.60;2.93;;;;;;;25.13;83.22;99302.28;5082015;28;20181;-76
2022/08/15 15:50:27;;;;;;;3.00;2.60;;;;;;;25.09;82.66;99305.22;5084329;28;20260;-76
2022/08/15 15:52:55;;;;;;;3.17;2.97;;;;;;;25.06;82.55;99305.47;5081180;28;20331;-75
2022/08/15 15:55:21;;;;;;;3.00;2.80;;;;;;;25.10;82.63;99309.53;5080319;28;20644;-75
2022/08/15 15:57:46;;;;;;;4.97;2.90;;;;;;;25.11;82.72;99305.06;5080953;28;20519;-75
2022/08/15 16:00:15;;;;;;;3.40;3.10;;;;;;;25.12;82.67;99304.09;5085693;28;20271;-75
2022/08/15 16:02:45;;;;;;;2.80;2.60;;;;;;;25.19;83.11;99304.41;5080302;28;20271;-73
2022/08/15 16:05:11;;;;;;;3.20;3.00;;;;;;;25.27;82.78;99302.78;5083078;28;20664;-75
2022/08/15 16:07:37;;;;;;;2.63;2.50;;;;;;;25.36;82.10;99295.00;5084321;28;20193;-76
2022/08/15 16:10:11;;;;;;;2.70;2.50;;;;;;;25.41;81.15;99306.03;5085299;28;20181;-75
2022/08/15 16:12:39;;;;;;;2.80;2.60;;;;;;;25.41;80.31;99301.59;5082221;28;20200;-75
2022/08/15 16:15:20;;;;;;;2.97;2.53;;;;;;;25.42;79.73;99307.75;5084995;28;20197;-77
2022/08/15 16:17:50;;;;;;;2.67;2.30;;;;;;;25.46;79.09;99318.91;5077634;28;20674;-76
2022/08/15 16:20:41;;;;;;;2.87;2.60;;;;;;;25.55;78.82;99311.00;5086655;28;20213;-75
2022/08/15 16:23:38;;;;;;;2.60;2.27;;;;;;;25.69;78.80;99314.25;5085572;28;20201;-76
2022/08/15 16:26:44;;;;;;;2.50;2.30;;;;;;;25.84;78.33;99318.19;5084336;28;20207;-76
2022/08/15 16:29:48;;;;;;;2.37;2.23;;;;;;;25.95;76.96;99327.84;5080333;28;20197;-76
2022/08/15 16:32:36;;;;;;;2.23;2.03;;;;;;;26.01;75.44;99310.53;5068985;28;20286;-76
2022/08/15 16:35:35;;;;;;;2.60;2.10;;;;;;;26.02;75.08;99313.03;5081759;28;20197;-76
2022/08/15 16:38:11;;;;;;;2.23;2.07;;;;;;;26.05;74.41;99314.59;5082553;28;20182;-76
2022/08/15 16:40:45;;;;;;;2.37;2.17;;;;;;;26.06;73.98;99308.31;5080579;28;20251;-76
2022/08/15 16:43:31;;;;;;;2.40;2.23;;;;;;;26.06;73.35;99312.78;5079532;28;20201;-76
2022/08/15 16:46:20;;;;;;;2.73;2.10;;;;;;;26.00;72.73;99303.56;5082388;28;20204;-76
2022/08/15 16:48:51;;;;;;;2.37;2.17;;;;;;;25.91;73.04;99307.88;5064060;28;20208;-76
2022/08/15 16:51:29;;;;;;;1.87;1.60;;;;;;;25.81;72.44;99307.03;5078896;28;20177;-76
2022/08/15 16:54:14;;;;;;;1.67;1.57;;;;;;;25.67;72.64;99321.47;5081244;28;20197;-76
2022/08/15 16:56:57;;;;;;;2.13;1.63;;;;;;;25.51;72.21;99316.69;5080204;28;20182;-76
2022/08/15 16:59:38;;;;;;;1.67;1.57;;;;;;;25.28;72.72;99322.13;5079426;28;20250;-76
2022/08/15 17:02:15;;;;;;;1.87;1.60;;;;;;;25.11;73.14;99313.00;5087499;28;20239;-76
2022/08/15 17:04:58;;;;;;;1.53;1.43;;;;;;;25.03;74.01;99310.19;5087698;28;20185;-77
2022/08/15 17:07:45;;;;;;;1.67;1.57;;;;;;;24.93;73.65;99313.59;5082865;28;20652;-76
2022/08/15 17:10:48;;;;;;;1.80;1.70;;;;;;;24.81;73.45;99309.34;5080349;28;20191;-76
2022/08/15 17:13:31;;;;;;;2.47;1.40;;;;;;;24.69;73.61;99305.91;5081042;28;20204;-75
2022/08/15 17:16:12;;;;;;;1.60;1.50;;;;;;;24.58;73.03;99308.63;5087173;28;20184;-75
2022/08/15 17:18:40;;;;;;;1.53;1.43;;;;;;;24.46;73.86;99316.59;5082315;28;20195;-75
2022/08/15 17:21:24;;;;;;;1.67;1.57;;;;;;;24.39;74.39;99309.31;5082577;28;20245;-77
2022/08/15 17:24:14;;;;;;;2.50;1.43;;;;;;;24.30;74.11;99313.56;5089186;28;20542;-76
2022/08/15 17:26:45;;;;;;;1.43;1.33;;;;;;;24.17;72.98;99322.50;5081434;28;20188;-77
2022/08/15 17:29:15;;;;;;;1.57;1.20;;;;;;;24.08;71.99;99322.41;5084618;28;20185;-76
2022/08/15 17:31:42;;;;;;;1.50;1.40;;;;;;;24.02;71.26;99321.09;5082637;28;20185;-76
2022/08/15 17:34:14;;;;;;;3.87;1.40;;;;;;;23.97;71.68;99326.75;5088771;28;20207;-75
2022/08/15 17:36:40;;;;;;;1.20;1.10;;;;;;;23.90;72.19;99336.91;5081091;28;20256;-75
2022/08/15 17:39:17;;;;;;;1.63;1.00;;;;;;;23.84;72.25;99337.44;5082274;28;20188;-76
2022/08/15 17:41:48;;;;;;;1.10;1.10;;;;;;;23.73;72.51;99350.66;5077212;28;21009;-76
2022/08/15 17:44:20;;;;;;;1.10;1.00;;;;;;;23.69;72.89;99350.03;5073689;28;20332;-76
2022/08/15 17:46:51;;;;;;;1.13;1.07;;;;;;;23.64;73.42;99340.78;5079387;28;20188;-76
2022/08/15 17:49:23;;;;;;;1.33;1.23;;;;;;;23.60;73.88;99343.69;5079176;28;20972;-76
2022/08/15 17:51:57;;;;;;;1.20;1.10;;;;;;;23.58;74.64;99337.69;5081769;28;20177;-75
2022/08/15 17:54:38;;;;;;;1.27;1.10;;;;;;;23.55;74.88;99337.09;5072845;28;21125;-76
2022/08/15 17:57:11;;;;;;;1.20;1.10;;;;;;;23.51;75.47;99335.66;5073566;28;20224;-77
2022/08/15 18:00:11;;;;;;;0.83;0.80;;;;;;;23.43;75.93;99338.91;5074478;28;20710;-78
2022/08/15 18:02:37;;;;;;;1.37;1.23;;;;;;;23.34;76.35;99345.75;5078444;28;20197;-75
2022/08/15 18:05:03;;;;;;;0.90;0.90;;;;;;;23.28;76.87;99349.69;5071132;28;20710;-78
2022/08/15 18:07:31;;;;;;;1.50;1.40;;;;;;;23.20;77.48;99349.44;5072840;28;20188;-76
2022/08/15 18:10:01;;;;;;;1.20;1.10;;;;;;;23.12;78.05;99352.63;5085648;28;20173;-76
2022/08/15 18:12:29;;;;;;;1.27;1.17;;;;;;;23.03;78.25;99357.75;5080715;28;20738;-76
2022/08/15 18:14:55;;;;;;;1.30;1.20;;;;;;;22.95;78.75;99353.06;5083576;28;20194;-75
2022/08/15 18:17:27;;;;;;;1.27;1.17;;;;;;;22.89;79.31;99358.81;5075316;28;20177;-76
2022/08/15 18:20:02;;;;;;;1.20;1.10;;;;;;;22.77;79.83;99353.50;5086043;28;20278;-76
2022/08/15 18:22:29;;;;;;;1.50;1.40;;;;;;;22.68;80.26;99367.38;5073664;28;20303;-75
2022/08/15 18:25:16;;;;;;;1.63;1.50;;;;;;;22.61;80.84;99371.44;5072957;28;20182;-75
2022/08/15 18:27:48;;;;;;;1.50;1.40;;;;;;;22.49;81.52;99376.66;5071024;28;20191;-76
2022/08/15 18:30:25;;;;;;;1.63;1.47;;;;;;;22.40;81.94;99377.31;5076924;28;20188;-77
2022/08/15 18:32:56;;;;;;;1.47;1.37;;;;;;;22.31;82.28;99381.44;5077621;28;20309;-78
2022/08/15 18:35:28;;;;;;;1.67;1.40;;;;;;;22.25;82.91;99378.41;5079085;28;20188;-78
2022/08/15 18:38:06;;;;;;;1.60;1.30;;;;;;;22.19;83.14;99384.97;5077372;28;20193;-77
2022/08/15 18:43:22;;;;;;;1.80;1.70;;;;;;;22.04;84.10;99400.06;5074656;28;20292;-76
2022/08/15 18:45:51;;;;;;;1.60;1.20;;;;;;;21.98;84.78;99395.25;5081424;28;20271;-76
2022/08/15 18:48:26;;;;;;;2.07;1.70;;;;;;;21.94;84.69;99405.16;5074014;28;20181;-77
2022/08/15 18:51:07;;;;;;;2.13;1.57;;;;;;;21.88;85.01;99414.31;5073892;28;20269;-75
2022/08/15 18:54:13;;;;;;;1.73;1.63;;;;;;;21.83;85.86;99416.47;5079892;28;20235;-75
2022/08/15 18:57:04;;;;;;;2.30;2.10;;;;;;;21.76;86.46;99418.69;5075184;28;20688;-77
2022/08/15 18:59:34;;;;;;;2.23;2.00;;;;;;;21.71;86.75;99423.41;5075624;28;20676;-75
2022/08/15 19:02:14;;;;;;;1.70;1.60;;;;;;;21.68;87.22;99428.06;5084700;28;20200;-76
2022/08/15 19:04:43;;;;;;;2.03;1.87;;;;;;;21.62;87.48;99427.53;5082566;28;20202;-76
2022/08/15 19:07:14;;;;;;;2.10;1.90;;;;;;;21.70;87.93;99437.53;5081537;28;20469;-75
2022/08/15 19:09:41;;;;;;;2.37;2.00;;;;;;;21.61;88.56;99439.00;5080545;28;20181;-76
2022/08/15 19:12:16;;;;;;;1.70;1.60;;;;;;;21.53;89.00;99437.81;5081991;28;20178;-75
2022/08/15 19:14:46;;;;;;;1.97;1.83;;;;;;;21.46;89.57;99446.16;5082504;28;20282;-76
2022/08/15 19:17:19;;;;;;;1.70;1.60;;;;;;;21.40;89.85;99457.06;5078009;28;20276;-76
2022/08/15 19:19:49;;;;;;;2.07;1.70;;;;;;;21.35;90.02;99450.44;5084328;28;20303;-75
2022/08/15 19:22:15;;;;;;;2.17;1.97;;;;;;;21.31;90.60;99455.06;5080590;28;20260;-77
2022/08/15 19:24:40;;;;;;;2.07;1.90;;;;;;;21.26;90.96;99447.47;5082372;28;20686;-76
2022/08/15 19:27:50;;;;;;;3.03;2.00;;;;;;;21.21;91.25;99448.72;5073566;28;20263;-76
2022/08/15 19:30:27;;;;;;;2.17;2.00;;;;;;;21.15;91.43;99452.59;5043456;28;20209;-76
2022/08/15 19:33:05;;;;;;;2.07;1.90;;;;;;;21.12;91.77;99452.81;5025934;28;21040;-76